Time;durP1;ratioP1;P1;durP2;ratioP2;P2;SDS_P1;SDS_P2;PMS_P1;PMS_P2;Temp;Humidity;BMP_temperature;BMP_pressure;BME280_temperature;BME280_humidity;BME280_pressure;Samples;Min_cycle;Max_cycle;Signal;HPM_P1;HPM_P2
2021/09/25 00:00:37;;;;;;;13.15;9.60;;;;;;;15.80;100.00;96512.97;4988888;28;20077;-57
2021/09/25 00:03:07;;;;;;;12.20;9.25;;;;;;;15.63;100.00;96517.50;4983267;28;20074;-59
2021/09/25 00:05:37;;;;;;;;;;;;;;;15.55;100.00;96517.53;4986437;28;20484;-58
2021/09/25 00:08:06;;;;;;;12.85;8.75;;;;;;;15.77;100.00;96513.31;4984917;28;19961;-55
2021/09/25 00:10:35;;;;;;;14.07;9.00;;;;;;;15.78;100.00;96510.47;4988689;28;20543;-59
2021/09/25 00:13:04;;;;;;;12.07;9.23;;;;;;;15.63;100.00;96523.66;4987202;28;20074;-58
2021/09/25 00:15:33;;;;;;;13.93;9.43;;;;;;;15.65;100.00;96520.81;4988661;28;20456;-59
2021/09/25 00:18:03;;;;;;;13.85;9.15;;;;;;;15.77;100.00;96515.97;4990889;28;20516;-59
2021/09/25 00:20:34;;;;;;;12.80;8.75;;;;;;;15.70;100.00;96523.81;4988218;28;20070;-60
2021/09/25 00:23:02;;;;;;;10.10;8.73;;;;;;;15.70;100.00;96523.00;4986855;28;20082;-58
2021/09/25 00:25:31;;;;;;;12.00;8.43;;;;;;;15.66;100.00;96512.72;4987577;28;20083;-58
2021/09/25 00:28:00;;;;;;;13.30;8.95;;;;;;;15.71;100.00;96514.00;4986529;28;20108;-59
2021/09/25 00:30:28;;;;;;;12.18;9.13;;;;;;;15.73;100.00;96506.69;4985608;28;20065;-58
2021/09/25 00:32:57;;;;;;;10.38;8.20;;;;;;;15.66;100.00;96504.72;4985624;28;20103;-57
2021/09/25 00:35:26;;;;;;;10.93;8.40;;;;;;;15.55;100.00;96509.56;4987875;28;20066;-59
2021/09/25 00:37:55;;;;;;;14.38;9.30;;;;;;;15.48;100.00;96505.94;4985515;28;20086;-58
2021/09/25 00:40:24;;;;;;;13.73;9.38;;;;;;;15.62;100.00;96516.69;4987320;28;20489;-58
2021/09/25 00:42:52;;;;;;;15.15;9.10;;;;;;;15.66;100.00;96506.56;4986880;28;20066;-58
2021/09/25 00:45:22;;;;;;;11.80;9.30;;;;;;;15.66;100.00;96509.22;4987562;28;20557;-59
2021/09/25 00:47:51;;;;;;;11.53;8.60;;;;;;;15.58;100.00;96515.34;4986927;28;20084;-57
2021/09/25 00:50:19;;;;;;;12.70;8.95;;;;;;;15.44;100.00;96519.59;4986474;28;20073;-59
2021/09/25 00:52:48;;;;;;;14.18;8.95;;;;;;;15.24;100.00;96520.16;4986400;28;20081;-57
2021/09/25 00:55:18;;;;;;;11.68;8.80;;;;;;;15.29;100.00;96515.19;4988053;28;20090;-58
2021/09/25 00:57:47;;;;;;;11.38;8.68;;;;;;;15.34;100.00;96512.81;4987147;28;20077;-54
2021/09/25 01:00:16;;;;;;;13.48;9.40;;;;;;;15.18;100.00;96517.22;4986594;28;20085;-59
2021/09/25 01:02:45;;;;;;;11.90;8.25;;;;;;;15.33;100.00;96519.16;4986098;28;20073;-61
2021/09/25 01:05:16;;;;;;;12.95;8.50;;;;;;;15.25;100.00;96511.22;4987433;28;20265;-60
2021/09/25 01:07:45;;;;;;;11.25;7.95;;;;;;;15.40;100.00;96507.66;4989019;28;20085;-61
2021/09/25 01:10:14;;;;;;;10.50;8.30;;;;;;;15.35;100.00;96515.31;4989077;28;20081;-59
2021/09/25 01:12:44;;;;;;;12.60;8.88;;;;;;;15.33;100.00;96512.00;4987618;28;20496;-59
2021/09/25 01:15:13;;;;;;;13.23;9.05;;;;;;;15.20;100.00;96512.53;4984688;28;20080;-59
2021/09/25 01:17:42;;;;;;;11.70;9.15;;;;;;;15.24;100.00;96518.34;4988506;28;20251;-58
2021/09/25 01:20:12;;;;;;;10.15;8.13;;;;;;;15.16;100.00;96508.56;4985544;28;20101;-59
2021/09/25 01:22:43;;;;;;;13.98;9.23;;;;;;;15.25;100.00;96504.06;4987022;28;20540;-60
2021/09/25 01:25:13;;;;;;;11.77;8.93;;;;;;;15.22;100.00;96516.88;4988901;28;20073;-58
2021/09/25 01:27:42;;;;;;;11.55;9.27;;;;;;;15.26;100.00;96512.88;4988418;28;20445;-58
2021/09/25 01:30:14;;;;;;;14.32;9.93;;;;;;;15.18;100.00;96509.25;4986380;28;20070;-59
2021/09/25 01:32:43;;;;;;;12.70;9.88;;;;;;;15.27;100.00;96510.03;4987442;28;20065;-59
2021/09/25 01:35:12;;;;;;;10.48;8.90;;;;;;;15.22;100.00;96511.56;4986879;28;20069;-59
2021/09/25 01:37:42;;;;;;;13.75;9.82;;;;;;;15.10;100.00;96498.63;4986661;28;20074;-59
2021/09/25 01:40:11;;;;;;;13.38;9.18;;;;;;;14.91;100.00;96509.69;4989732;28;20097;-59
2021/09/25 01:42:40;;;;;;;13.32;9.95;;;;;;;15.11;100.00;96504.81;4987027;28;20077;-59
2021/09/25 01:45:10;;;;;;;13.60;10.40;;;;;;;15.06;100.00;96505.28;4980758;28;20066;-60
2021/09/25 01:47:39;;;;;;;11.73;9.37;;;;;;;15.19;100.00;96499.44;4984183;28;20062;-57
2021/09/25 01:50:11;;;;;;;14.30;9.25;;;;;;;15.19;100.00;96500.28;4988095;28;20537;-58
2021/09/25 01:52:39;;;;;;;13.43;9.98;;;;;;;14.72;100.00;96511.69;4985550;28;20524;-57
2021/09/25 01:55:10;;;;;;;12.63;8.98;;;;;;;14.59;100.00;96508.75;4989897;28;20082;-59
2021/09/25 01:57:41;;;;;;;11.57;9.15;;;;;;;14.78;100.00;96510.19;4986199;28;20453;-56
2021/09/25 02:00:10;;;;;;;13.63;9.82;;;;;;;14.94;100.00;96509.34;4985331;28;20520;-59
2021/09/25 02:02:39;;;;;;;13.60;10.73;;;;;;;14.78;100.00;96509.38;4984695;28;20081;-56
2021/09/25 02:05:08;;;;;;;15.02;10.75;;;;;;;14.51;100.00;96503.44;4980867;28;20070;-59
2021/09/25 02:07:37;;;;;;;16.10;10.55;;;;;;;14.77;100.00;96503.25;4983171;28;20066;-58
2021/09/25 02:10:06;;;;;;;13.02;10.05;;;;;;;14.95;100.00;96498.53;4984746;28;20092;-56
2021/09/25 02:12:36;;;;;;;13.82;8.80;;;;;;;14.83;100.00;96504.38;4987933;28;20062;-56
2021/09/25 02:15:06;;;;;;;13.57;9.68;;;;;;;14.74;100.00;96508.88;4987444;28;20074;-59
2021/09/25 02:17:35;;;;;;;11.85;9.43;;;;;;;14.81;100.00;96507.19;4985209;28;20062;-60
2021/09/25 02:20:05;;;;;;;13.27;9.48;;;;;;;14.72;100.00;96509.03;4986341;28;20425;-59
2021/09/25 02:22:33;;;;;;;14.02;9.10;;;;;;;14.78;100.00;96512.84;4986390;28;20093;-59
2021/09/25 02:25:02;;;;;;;12.10;9.32;;;;;;;14.34;100.00;96509.72;4987110;28;21257;-58
2021/09/25 02:27:30;;;;;;;11.98;9.02;;;;;;;14.43;100.00;96508.72;4985765;28;20104;-60
2021/09/25 02:30:00;;;;;;;17.08;9.40;;;;;;;14.62;100.00;96510.22;4987086;28;20509;-59
2021/09/25 02:32:28;;;;;;;13.10;9.38;;;;;;;14.41;100.00;96516.03;4985778;28;20485;-61
2021/09/25 02:34:57;;;;;;;13.55;9.18;;;;;;;14.37;100.00;96509.41;4986794;28;20070;-59
2021/09/25 02:37:25;;;;;;;13.23;9.55;;;;;;;14.15;100.00;96516.22;5013880;28;20085;-60
2021/09/25 02:39:54;;;;;;;12.50;9.38;;;;;;;14.62;100.00;96511.03;4985975;28;20504;-59
2021/09/25 02:42:22;;;;;;;12.23;9.55;;;;;;;14.53;100.00;96513.91;4984411;28;20069;-59
2021/09/25 02:44:51;;;;;;;12.25;9.68;;;;;;;14.44;100.00;96508.56;4984668;28;20085;-59
2021/09/25 02:47:21;;;;;;;13.32;10.00;;;;;;;14.27;100.00;96512.22;4986887;28;20074;-59
2021/09/25 02:49:49;;;;;;;14.38;9.27;;;;;;;14.54;100.00;96515.56;4985217;28;20090;-59
2021/09/25 02:52:18;;;;;;;15.18;10.13;;;;;;;14.39;100.00;96513.56;4988897;28;20472;-59
2021/09/25 02:54:46;;;;;;;17.38;10.55;;;;;;;14.33;100.00;96514.22;4985225;28;20062;-56
2021/09/25 02:57:15;;;;;;;12.80;9.43;;;;;;;14.00;100.00;96521.31;4988709;28;20085;-58
2021/09/25 02:59:43;;;;;;;13.90;9.63;;;;;;;14.41;100.00;96514.19;4988932;28;20078;-58
2021/09/25 03:02:11;;;;;;;13.57;9.50;;;;;;;14.15;100.00;96521.50;4988853;28;20547;-58
2021/09/25 03:04:41;;;;;;;14.32;9.38;;;;;;;14.27;100.00;96516.69;4989621;28;20077;-59
2021/09/25 03:07:10;;;;;;;16.10;9.23;;;;;;;14.40;100.00;96514.38;4992044;28;20085;-59
2021/09/25 03:09:39;;;;;;;17.52;8.95;;;;;;;14.36;100.00;96505.91;4989828;28;20074;-56
2021/09/25 03:12:08;;;;;;;12.40;9.38;;;;;;;14.33;100.00;96511.56;4988947;28;20073;-59
2021/09/25 03:14:38;;;;;;;13.00;9.35;;;;;;;13.96;100.00;96512.88;4988938;28;20062;-58
2021/09/25 03:17:06;;;;;;;16.08;10.02;;;;;;;14.54;100.00;96511.06;4985438;28;20461;-57
2021/09/25 03:19:36;;;;;;;12.50;9.63;;;;;;;14.54;100.00;96512.91;4988914;28;20487;-59
2021/09/25 03:22:06;;;;;;;13.88;9.18;;;;;;;14.58;100.00;96512.38;4984823;28;20073;-58
2021/09/25 03:24:34;;;;;;;13.85;9.15;;;;;;;14.53;100.00;96513.91;4985650;28;20100;-59
2021/09/25 03:27:03;;;;;;;14.32;9.55;;;;;;;14.52;100.00;96513.06;4990181;28;20084;-58
2021/09/25 03:29:32;;;;;;;12.88;9.38;;;;;;;14.59;100.00;96510.56;4987997;28;20066;-59
2021/09/25 03:32:00;;;;;;;13.63;9.77;;;;;;;14.55;100.00;96504.75;4989382;28;20077;-60
2021/09/25 03:34:28;;;;;;;14.63;10.10;;;;;;;14.49;100.00;96508.06;4991427;28;20070;-59
2021/09/25 03:36:57;;;;;;;12.43;9.10;;;;;;;14.13;100.00;96510.22;4988516;28;20066;-56
2021/09/25 03:39:27;;;;;;;12.57;9.63;;;;;;;14.09;100.00;96506.25;4989984;28;20085;-60
2021/09/25 03:41:55;;;;;;;14.57;10.18;;;;;;;13.95;100.00;96515.69;4988313;28;20078;-59
2021/09/25 03:44:23;;;;;;;14.07;9.88;;;;;;;13.96;100.00;96514.69;4989983;28;20073;-57
2021/09/25 03:46:52;;;;;;;14.32;9.80;;;;;;;14.16;100.00;96504.59;4988122;28;20089;-59
2021/09/25 03:49:20;;;;;;;12.60;9.68;;;;;;;13.88;100.00;96507.56;4986125;28;20080;-59
2021/09/25 03:51:49;;;;;;;12.75;9.70;;;;;;;14.18;100.00;96505.28;4984632;28;20066;-60
2021/09/25 03:54:17;;;;;;;13.30;9.32;;;;;;;14.19;100.00;96515.69;4979916;28;20062;-59
2021/09/25 03:56:47;;;;;;;13.48;9.57;;;;;;;14.19;100.00;96507.75;4987741;28;20078;-59
2021/09/25 03:59:16;;;;;;;13.80;9.82;;;;;;;14.29;100.00;96507.59;4988435;28;20082;-59
2021/09/25 04:01:44;;;;;;;13.38;9.45;;;;;;;13.97;100.00;96519.00;4984577;28;20073;-57
2021/09/25 04:04:13;;;;;;;12.15;9.55;;;;;;;14.28;100.00;96513.03;4983809;28;20086;-60
2021/09/25 04:06:41;;;;;;;14.35;10.07;;;;;;;14.37;100.00;96512.88;4986338;28;20081;-60
2021/09/25 04:09:10;;;;;;;12.15;9.25;;;;;;;14.33;100.00;96511.56;4984703;28;20095;-59
2021/09/25 04:11:38;;;;;;;15.75;10.02;;;;;;;14.23;100.00;96505.59;4986478;28;20070;-56
2021/09/25 04:14:08;;;;;;;13.98;9.77;;;;;;;14.35;100.00;96503.41;4985178;28;20066;-58
2021/09/25 04:16:37;;;;;;;11.60;9.27;;;;;;;14.45;100.00;96501.41;4983264;28;20088;-60
2021/09/25 04:19:05;;;;;;;13.77;9.63;;;;;;;14.40;100.00;96501.94;4990764;28;20089;-59
2021/09/25 04:21:34;;;;;;;13.85;10.05;;;;;;;14.47;100.00;96502.91;4983326;28;20078;-59
2021/09/25 04:24:04;;;;;;;14.55;10.07;;;;;;;14.51;100.00;96498.13;4985442;28;20485;-59
2021/09/25 04:26:33;;;;;;;16.35;10.45;;;;;;;14.53;100.00;96496.16;4984998;28;20085;-60
2021/09/25 04:29:01;;;;;;;14.13;9.73;;;;;;;14.54;100.00;96502.28;4982852;28;20726;-57
2021/09/25 04:31:34;;;;;;;12.38;9.40;;;;;;;14.53;100.00;96503.28;4988581;28;20069;-61
2021/09/25 04:34:03;;;;;;;13.25;9.75;;;;;;;14.48;100.00;96498.44;4983439;28;20346;-59
2021/09/25 04:36:32;;;;;;;15.95;10.05;;;;;;;14.32;100.00;96499.28;4999381;28;20073;-59
2021/09/25 04:39:01;;;;;;;12.30;9.50;;;;;;;14.31;100.00;96497.63;4982628;28;20517;-59
2021/09/25 04:41:29;;;;;;;13.73;10.32;;;;;;;14.07;100.00;96502.94;4989979;28;20668;-58
2021/09/25 04:43:58;;;;;;;11.98;9.40;;;;;;;14.12;100.00;96504.09;4986224;28;20066;-59
2021/09/25 04:46:26;;;;;;;12.70;9.50;;;;;;;14.04;100.00;96508.56;4987310;28;20086;-60
2021/09/25 04:48:56;;;;;;;13.43;8.98;;;;;;;13.96;100.00;96509.38;4981570;28;20050;-56
2021/09/25 04:51:24;;;;;;;11.05;8.75;;;;;;;13.95;100.00;96503.25;4987441;28;20468;-59
2021/09/25 04:53:53;;;;;;;13.90;8.82;;;;;;;14.03;100.00;96497.13;4999626;28;20061;-57
2021/09/25 04:56:21;;;;;;;12.65;9.38;;;;;;;13.90;100.00;96496.78;4988697;28;20070;-60
2021/09/25 04:58:50;;;;;;;11.57;8.82;;;;;;;13.57;100.00;96502.03;4998761;28;20070;-57
2021/09/25 05:01:18;;;;;;;12.40;8.80;;;;;;;13.72;100.00;96507.53;5002875;28;20081;-56
2021/09/25 05:03:48;;;;;;;12.95;9.10;;;;;;;13.90;100.00;96507.38;4984972;28;20070;-59
2021/09/25 05:06:18;;;;;;;12.55;10.23;;;;;;;13.45;100.00;96508.63;4981955;28;20058;-57
2021/09/25 05:08:47;;;;;;;12.65;9.60;;;;;;;13.88;100.00;96507.56;4982371;28;20066;-60
2021/09/25 05:11:15;;;;;;;12.40;8.38;;;;;;;13.51;100.00;96515.94;4983209;28;20066;-60
2021/09/25 05:13:44;;;;;;;10.98;8.93;;;;;;;13.76;100.00;96507.06;4985570;28;20569;-60
2021/09/25 05:16:12;;;;;;;13.90;8.38;;;;;;;14.03;100.00;96510.38;4987817;28;20140;-59
2021/09/25 05:18:41;;;;;;;12.30;8.65;;;;;;;14.23;100.00;96509.06;4984394;28;20525;-52
2021/09/25 05:21:10;;;;;;;10.90;8.82;;;;;;;14.34;100.00;96504.41;4982697;28;20081;-59
2021/09/25 05:23:40;;;;;;;11.05;8.60;;;;;;;14.48;100.00;96517.84;4986706;28;20177;-55
2021/09/25 05:26:09;;;;;;;10.43;8.43;;;;;;;14.46;100.00;96519.84;4982581;28;20073;-59
2021/09/25 05:28:38;;;;;;;10.23;7.80;;;;;;;13.98;100.00;96526.78;4986633;28;20093;-59
2021/09/25 05:31:09;;;;;;;10.32;7.05;;;;;;;13.92;100.00;96537.22;4986107;28;20090;-58
2021/09/25 05:33:37;;;;;;;11.43;7.20;;;;;;;13.71;100.00;96533.22;4979569;28;20070;-58
2021/09/25 05:36:06;;;;;;;8.40;7.00;;;;;;;13.77;100.00;96534.41;4983382;28;20069;-59
2021/09/25 05:38:34;;;;;;;11.32;7.68;;;;;;;13.20;100.00;96547.41;4986821;28;20134;-59
2021/09/25 05:41:04;;;;;;;10.30;7.55;;;;;;;13.33;100.00;96537.22;4985754;28;20069;-59
2021/09/25 05:43:33;;;;;;;11.57;7.60;;;;;;;13.63;100.00;96537.69;4985904;28;20571;-60
2021/09/25 05:46:01;;;;;;;9.73;7.47;;;;;;;13.81;100.00;96540.19;4986285;28;20062;-58
2021/09/25 05:48:30;;;;;;;13.32;8.80;;;;;;;13.19;100.00;96538.63;4986693;28;20081;-59
2021/09/25 05:50:59;;;;;;;12.45;8.55;;;;;;;13.59;100.00;96534.50;4981984;28;20317;-58
2021/09/25 05:53:27;;;;;;;13.32;8.60;;;;;;;14.42;100.00;96526.47;4979340;28;20065;-57
2021/09/25 05:55:56;;;;;;;11.25;8.80;;;;;;;13.92;100.00;96531.94;4980764;28;20066;-59
2021/09/25 05:58:26;;;;;;;13.35;8.88;;;;;;;13.97;100.00;96533.09;4987397;28;20069;-57
2021/09/25 06:00:54;;;;;;;11.85;8.82;;;;;;;14.30;100.00;96533.09;4985178;28;20521;-59
2021/09/25 06:03:23;;;;;;;11.77;8.52;;;;;;;14.49;100.00;96534.59;4988070;28;20055;-60
2021/09/25 06:05:51;;;;;;;12.38;8.57;;;;;;;14.94;100.00;96538.53;4983320;28;20058;-59
2021/09/25 06:08:20;;;;;;;15.13;8.98;;;;;;;15.14;100.00;96538.97;4982736;28;20070;-59
2021/09/25 06:10:49;;;;;;;11.27;8.55;;;;;;;15.76;100.00;96530.25;4983720;28;20085;-58
2021/09/25 06:13:17;;;;;;;10.70;8.88;;;;;;;15.36;100.00;96542.72;4985203;28;20069;-60
2021/09/25 06:15:47;;;;;;;11.18;8.95;;;;;;;15.79;100.00;96538.69;4984790;28;20062;-59
2021/09/25 06:18:16;;;;;;;10.57;8.68;;;;;;;16.20;100.00;96529.63;4985668;28;20069;-59
2021/09/25 06:20:45;;;;;;;12.05;8.27;;;;;;;16.56;100.00;96533.31;4985133;28;20065;-56
2021/09/25 06:23:13;;;;;;;11.90;9.25;;;;;;;16.68;100.00;96522.22;4985125;28;20141;-58
2021/09/25 06:25:41;;;;;;;11.95;8.90;;;;;;;16.07;100.00;96522.22;4984707;28;20543;-59
2021/09/25 06:28:10;;;;;;;13.18;9.07;;;;;;;16.73;100.00;96531.34;4986475;28;20062;-60
2021/09/25 06:30:41;;;;;;;10.32;8.32;;;;;;;17.15;100.00;96532.59;4985647;28;20073;-60
2021/09/25 06:33:12;;;;;;;9.93;8.35;;;;;;;17.19;100.00;96536.53;4983463;28;20066;-60
2021/09/25 06:35:40;;;;;;;12.10;8.65;;;;;;;17.62;100.00;96531.38;5015404;28;20062;-57
2021/09/25 06:38:09;;;;;;;13.07;7.70;;;;;;;17.86;100.00;96532.91;4984394;28;20066;-59
2021/09/25 06:40:37;;;;;;;11.18;8.43;;;;;;;18.01;100.00;96532.84;4985306;28;20535;-59
2021/09/25 06:43:06;;;;;;;11.05;8.77;;;;;;;18.24;100.00;96536.16;4984988;28;20117;-59
2021/09/25 06:45:35;;;;;;;10.30;7.88;;;;;;;18.32;100.00;96539.72;4987303;28;20069;-59
2021/09/25 06:48:04;;;;;;;10.23;8.10;;;;;;;18.40;100.00;96537.72;4985848;28;20062;-58
2021/09/25 06:50:34;;;;;;;10.77;8.02;;;;;;;18.46;100.00;96541.50;4984290;28;20089;-60
2021/09/25 06:53:03;;;;;;;10.77;8.07;;;;;;;18.57;100.00;96532.94;4985681;28;20061;-61
2021/09/25 06:55:31;;;;;;;9.65;7.72;;;;;;;18.74;100.00;96526.34;4989065;28;20197;-59
2021/09/25 06:57:59;;;;;;;10.23;8.55;;;;;;;18.65;100.00;96531.97;4983581;28;20626;-60
2021/09/25 07:00:29;;;;;;;10.80;8.45;;;;;;;18.90;100.00;96541.25;4986181;28;20103;-57
2021/09/25 07:02:57;;;;;;;9.13;8.07;;;;;;;18.78;100.00;96539.31;4988008;28;20536;-56
2021/09/25 07:05:26;;;;;;;9.65;8.00;;;;;;;18.89;100.00;96542.28;4985700;28;20478;-58
2021/09/25 07:07:56;;;;;;;9.63;7.90;;;;;;;19.28;100.00;96546.22;4983909;28;20074;-59
2021/09/25 07:10:25;;;;;;;8.70;7.68;;;;;;;19.29;100.00;96547.88;4986879;28;20078;-58
2021/09/25 07:12:53;;;;;;;10.50;7.88;;;;;;;19.23;100.00;96540.63;4984646;28;20074;-59
2021/09/25 07:15:22;;;;;;;11.07;7.97;;;;;;;19.54;100.00;96537.50;4983622;28;20054;-61
2021/09/25 07:17:50;;;;;;;9.02;7.50;;;;;;;19.50;100.00;96538.09;4985183;28;20073;-58
2021/09/25 07:20:19;;;;;;;10.57;7.85;;;;;;;19.71;100.00;96538.03;4984744;28;20070;-61
2021/09/25 07:22:51;;;;;;;9.00;7.75;;;;;;;19.60;100.00;96538.56;4984647;28;20116;-59
2021/09/25 07:25:22;;;;;;;10.98;7.40;;;;;;;20.04;100.00;96529.28;4986702;28;20093;-58
2021/09/25 07:27:51;;;;;;;9.63;7.18;;;;;;;20.18;100.00;96540.84;4983082;28;20058;-59
2021/09/25 07:30:19;;;;;;;8.85;6.85;;;;;;;20.03;100.00;96541.03;4984242;28;20081;-60
2021/09/25 07:32:48;;;;;;;8.95;7.20;;;;;;;20.10;100.00;96540.00;4983799;28;20078;-59
2021/09/25 07:35:16;;;;;;;8.10;6.13;;;;;;;19.93;100.00;96549.44;4984922;28;20081;-57
2021/09/25 07:37:45;;;;;;;8.02;6.55;;;;;;;20.63;100.00;96547.31;4984321;28;20086;-59
2021/09/25 07:40:14;;;;;;;7.20;6.15;;;;;;;20.63;100.00;96545.47;4986365;28;20093;-58
2021/09/25 07:42:43;;;;;;;6.50;5.53;;;;;;;20.25;100.00;96539.81;4985480;28;20133;-61
2021/09/25 07:45:12;;;;;;;6.35;5.63;;;;;;;20.80;100.00;96548.56;4986633;28;20070;-59
2021/09/25 07:47:41;;;;;;;7.00;6.00;;;;;;;21.06;100.00;96550.41;4988885;28;20062;-59
2021/09/25 07:50:10;;;;;;;10.25;5.85;;;;;;;20.64;100.00;96548.97;4988100;28;20621;-58
2021/09/25 07:52:41;;;;;;;7.03;6.03;;;;;;;21.10;98.79;96557.00;4987862;28;20104;-58
2021/09/25 07:55:12;;;;;;;7.25;6.07;;;;;;;20.89;100.00;96559.91;4989439;28;20105;-57
2021/09/25 07:57:41;;;;;;;7.90;6.07;;;;;;;20.44;100.00;96556.97;4989783;28;20069;-57
2021/09/25 08:00:14;;;;;;;8.93;6.20;;;;;;;19.48;100.00;96565.06;4983827;28;20171;-60
2021/09/25 08:02:43;;;;;;;7.43;6.03;;;;;;;21.29;100.00;96562.50;4987343;28;20069;-59
2021/09/25 08:05:13;;;;;;;7.30;5.93;;;;;;;21.58;98.79;96557.75;4987874;28;20066;-59
2021/09/25 08:07:41;;;;;;;7.15;6.07;;;;;;;21.73;99.52;96566.34;4987944;28;20302;-56
2021/09/25 08:10:12;;;;;;;7.30;6.35;;;;;;;21.13;100.00;96577.22;4988648;28;20607;-59
2021/09/25 08:12:41;;;;;;;8.82;6.40;;;;;;;21.75;100.00;96567.78;4987524;28;20150;-59
2021/09/25 08:15:12;;;;;;;7.35;6.30;;;;;;;22.17;93.88;96554.00;4988841;28;20078;-60
2021/09/25 08:17:41;;;;;;;8.02;6.40;;;;;;;21.33;100.00;96561.91;4986290;28;20705;-58
2021/09/25 08:20:12;;;;;;;7.28;5.90;;;;;;;21.01;100.00;96568.94;4988027;28;20572;-60
2021/09/25 08:22:42;;;;;;;7.75;6.20;;;;;;;20.73;100.00;96571.84;4985388;28;20086;-58
2021/09/25 08:25:12;;;;;;;7.65;5.93;;;;;;;21.66;100.00;96576.28;4991401;28;20528;-59
2021/09/25 08:27:40;;;;;;;8.68;6.07;;;;;;;21.62;100.00;96561.66;4986951;28;20093;-60
2021/09/25 08:30:12;;;;;;;8.52;6.00;;;;;;;22.44;98.15;96565.41;4987680;28;20054;-60
2021/09/25 08:32:42;;;;;;;7.53;6.18;;;;;;;22.56;94.60;96565.53;4981911;28;20074;-59
2021/09/25 08:35:11;;;;;;;7.50;5.90;;;;;;;23.17;90.91;96570.22;4988217;28;20538;-60
2021/09/25 08:37:40;;;;;;;6.95;6.00;;;;;;;22.82;93.59;96559.97;4986445;28;20516;-57
2021/09/25 08:40:11;;;;;;;7.93;5.97;;;;;;;23.51;87.61;96562.66;4989378;28;20085;-61
2021/09/25 08:42:41;;;;;;;7.25;6.05;;;;;;;22.49;97.92;96565.56;4983074;28;20529;-60
2021/09/25 08:45:10;;;;;;;6.88;5.90;;;;;;;22.81;93.42;96560.97;4987555;28;20480;-59
2021/09/25 08:47:40;;;;;;;7.97;6.00;;;;;;;24.04;82.41;96556.66;4986238;28;20611;-56
2021/09/25 08:50:10;;;;;;;8.10;6.15;;;;;;;23.73;84.72;96569.25;4986904;28;20030;-60
2021/09/25 08:52:39;;;;;;;7.80;6.10;;;;;;;23.86;81.25;96574.47;4983729;28;20499;-52
2021/09/25 08:55:08;;;;;;;6.95;5.85;;;;;;;24.08;81.59;96574.00;4986192;28;20093;-58
2021/09/25 08:57:39;;;;;;;8.20;6.40;;;;;;;24.27;80.03;96572.09;4986702;28;20039;-59
2021/09/25 09:00:37;;;;;;;8.98;6.65;;;;;;;24.45;78.45;96569.38;4983847;28;20912;-59
2021/09/25 09:03:27;;;;;;;10.43;6.40;;;;;;;24.77;73.36;96567.22;4985326;28;20600;-58
2021/09/25 09:06:03;;;;;;;9.20;6.47;;;;;;;24.33;77.37;96568.50;4986768;28;20074;-60
2021/09/25 09:08:32;;;;;;;11.65;6.00;;;;;;;25.16;72.45;96569.53;4982437;28;20116;-58
2021/09/25 09:11:01;;;;;;;8.80;6.25;;;;;;;24.82;76.82;96567.38;4984135;28;20072;-58
2021/09/25 09:13:30;;;;;;;9.75;6.10;;;;;;;24.99;78.68;96566.69;4987714;28;20126;-59
2021/09/25 09:16:03;;;;;;;7.03;5.93;;;;;;;24.92;77.86;96563.28;4982116;28;20348;-59
2021/09/25 09:18:38;;;;;;;8.43;5.65;;;;;;;24.21;81.07;96564.94;4987203;28;20053;-58
2021/09/25 09:21:10;;;;;;;9.23;6.20;;;;;;;24.35;77.51;96571.78;4984378;28;20456;-58
2021/09/25 09:23:41;;;;;;;8.73;5.85;;;;;;;24.74;76.86;96570.41;4982573;28;20076;-59
2021/09/25 09:26:09;;;;;;;6.85;6.15;;;;;;;25.47;67.85;96561.09;4983501;28;20074;-59
2021/09/25 09:28:39;;;;;;;8.80;6.22;;;;;;;24.07;76.82;96558.91;4986957;28;20123;-57
2021/09/25 09:31:08;;;;;;;11.02;5.60;;;;;;;24.60;75.48;96550.91;4989074;28;20078;-58
2021/09/25 09:33:41;;;;;;;7.07;5.72;;;;;;;25.09;71.91;96545.34;4986024;28;20544;-60
2021/09/25 09:36:29;;;;;;;6.97;5.90;;;;;;;24.56;75.23;96546.19;4986374;28;20135;-56
2021/09/25 09:39:01;;;;;;;7.18;5.85;;;;;;;25.22;68.31;96542.41;4986287;28;20058;-60
2021/09/25 09:41:35;;;;;;;6.28;5.68;;;;;;;24.63;72.63;96539.63;4985592;28;20069;-60
2021/09/25 09:44:05;;;;;;;7.43;6.18;;;;;;;24.31;73.27;96544.47;4982415;28;20054;-58
2021/09/25 09:46:37;;;;;;;8.98;6.50;;;;;;;24.52;72.73;96540.44;4984956;28;20078;-58
2021/09/25 09:49:08;;;;;;;8.55;6.65;;;;;;;25.43;64.75;96535.63;4988704;28;20852;-60
2021/09/25 09:51:38;;;;;;;8.45;6.38;;;;;;;25.93;62.60;96536.94;4986186;28;20089;-61
2021/09/25 09:54:18;;;;;;;7.55;6.05;;;;;;;25.84;60.58;96541.88;4984928;28;20070;-60
2021/09/25 09:56:47;;;;;;;;;;;;;;;26.14;59.33;96535.44;4983195;28;20069;-61
2021/09/25 09:59:15;;;;;;;6.93;5.82;;;;;;;26.56;55.72;96532.44;4986066;28;19957;-60
2021/09/25 10:01:45;;;;;;;8.00;5.72;;;;;;;26.59;54.68;96530.06;4984605;28;20156;-59
2021/09/25 10:04:16;;;;;;;8.00;5.65;;;;;;;26.71;54.76;96528.13;4985937;28;20161;-60
2021/09/25 10:06:47;;;;;;;7.03;6.32;;;;;;;26.83;52.98;96533.44;4984736;28;20074;-60
2021/09/25 10:09:18;;;;;;;6.95;6.13;;;;;;;26.83;54.45;96536.16;4980312;28;20085;-60
2021/09/25 10:11:51;;;;;;;6.07;5.43;;;;;;;26.46;51.59;96536.59;4981133;28;20073;-60
2021/09/25 10:14:21;;;;;;;5.82;5.10;;;;;;;25.24;56.57;96537.63;4985675;28;20062;-57
2021/09/25 10:16:51;;;;;;;9.07;6.07;;;;;;;26.28;52.88;96532.19;4984616;28;20090;-59
2021/09/25 10:19:26;;;;;;;6.22;5.28;;;;;;;26.13;50.93;96531.91;4990450;28;20082;-56
2021/09/25 10:21:57;;;;;;;6.45;4.93;;;;;;;26.92;48.85;96531.16;4979251;28;20078;-61
2021/09/25 10:24:28;;;;;;;7.53;5.25;;;;;;;25.61;53.58;96539.22;4981778;28;20589;-61
2021/09/25 10:26:57;;;;;;;5.90;4.40;;;;;;;27.29;48.31;96526.06;4981717;28;20092;-57
2021/09/25 10:29:27;;;;;;;5.97;5.13;;;;;;;27.05;50.11;96530.81;4980518;28;20884;-61
2021/09/25 10:32:18;;;;;;;7.30;5.15;;;;;;;26.19;51.17;96522.03;4980198;28;20320;-59
2021/09/25 10:35:12;;;;;;;5.15;4.65;;;;;;;26.64;49.50;96523.94;4981760;28;20086;-60
2021/09/25 10:37:42;;;;;;;5.88;4.80;;;;;;;27.58;47.34;96518.59;4978758;28;20152;-59
2021/09/25 10:40:32;;;;;;;5.80;4.97;;;;;;;26.81;50.22;96519.34;4983785;28;20074;-58
2021/09/25 10:43:05;;;;;;;5.22;4.50;;;;;;;27.48;48.16;96523.06;4982745;28;20634;-59
2021/09/25 10:45:34;;;;;;;7.28;4.38;;;;;;;27.63;47.98;96520.53;4980816;28;20097;-60
2021/09/25 10:48:08;;;;;;;7.72;4.57;;;;;;;26.88;48.70;96513.78;4981088;28;20070;-59
2021/09/25 10:50:41;;;;;;;5.40;4.38;;;;;;;27.07;47.99;96515.13;4981386;28;20081;-61
2021/09/25 10:53:12;;;;;;;6.65;4.60;;;;;;;27.24;46.93;96511.63;4981083;28;20537;-61
2021/09/25 10:55:42;;;;;;;5.05;4.55;;;;;;;26.91;48.07;96510.53;4982399;28;20089;-60
2021/09/25 10:58:15;;;;;;;6.88;4.53;;;;;;;27.13;48.47;96505.25;4981601;28;20097;-60
2021/09/25 11:00:52;;;;;;;5.20;4.20;;;;;;;27.25;45.72;96507.84;4980111;28;20077;-60
2021/09/25 11:03:54;;;;;;;5.60;4.70;;;;;;;26.48;49.94;96503.91;4979439;28;20656;-60
2021/09/25 11:06:34;;;;;;;8.20;4.40;;;;;;;27.41;47.25;96501.56;4979097;28;20507;-59
2021/09/25 11:09:05;;;;;;;6.20;5.00;;;;;;;27.44;47.16;96495.66;4983302;28;20441;-59
2021/09/25 11:11:37;;;;;;;;;;;;;;;26.78;45.69;96498.19;4984153;28;20069;-59
2021/09/25 11:14:14;;;;;;;5.78;4.80;;;;;;;26.85;47.45;96484.50;4983526;28;20459;-60
2021/09/25 11:17:04;;;;;;;4.68;4.20;;;;;;;27.35;46.99;96478.19;4981992;28;20515;-59
2021/09/25 11:19:42;;;;;;;4.60;3.90;;;;;;;27.77;45.79;96483.91;4986910;28;20078;-58
2021/09/25 11:22:15;;;;;;;5.68;4.10;;;;;;;27.43;46.45;96483.19;4984771;28;21351;-61
2021/09/25 11:24:46;;;;;;;4.38;3.97;;;;;;;27.77;45.30;96483.91;4985950;28;20078;-58
2021/09/25 11:27:17;;;;;;;6.60;4.35;;;;;;;28.08;44.48;96487.78;4986653;28;20061;-58
2021/09/25 11:29:53;;;;;;;5.85;4.03;;;;;;;28.19;43.76;96482.47;4982979;28;20077;-60
2021/09/25 11:32:25;;;;;;;4.75;4.22;;;;;;;28.08;43.37;96476.09;4984750;28;20070;-57
2021/09/25 11:34:54;;;;;;;4.95;4.00;;;;;;;28.13;43.54;96471.53;4985946;28;21136;-59